Time;durP1;ratioP1;P1;durP2;ratioP2;P2;SDS_P1;SDS_P2;PMS_P1;PMS_P2;Temp;Humidity;BMP_temperature;BMP_pressure;BME280_temperature;BME280_humidity;BME280_pressure;Samples;Min_cycle;Max_cycle;Signal;HPM_P1;HPM_P2
2022/03/20 00:00:44;;;;;;;10.57;4.57;;;6.10;99.90;;;;;;5050440;28;20044;-46
2022/03/20 00:03:11;;;;;;;12.20;4.80;;;6.10;99.90;;;;;;5050403;28;20118;-49
2022/03/20 00:05:39;;;;;;;10.15;5.03;;;6.00;99.90;;;;;;5050131;28;20025;-47
2022/03/20 00:08:10;;;;;;;12.63;4.90;;;6.00;99.90;;;;;;5050393;28;20056;-47
2022/03/20 00:10:42;;;;;;;9.23;4.70;;;6.00;99.90;;;;;;5048137;28;20045;-46
2022/03/20 00:13:09;;;;;;;10.85;4.50;;;6.00;99.90;;;;;;5050012;28;20135;-50
2022/03/20 00:15:35;;;;;;;9.50;4.78;;;5.90;99.90;;;;;;5048390;28;20041;-46
2022/03/20 00:18:01;;;;;;;8.95;4.80;;;5.90;99.90;;;;;;5050187;28;20032;-49
2022/03/20 00:20:27;;;;;;;8.48;5.00;;;5.90;99.90;;;;;;5050387;28;20037;-48
2022/03/20 00:22:53;;;;;;;11.13;4.47;;;5.90;99.90;;;;;;5050557;28;20049;-46
2022/03/20 00:25:19;;;;;;;8.77;4.38;;;5.90;99.90;;;;;;5065650;28;20025;-45
2022/03/20 00:27:44;;;;;;;9.20;5.00;;;5.80;99.90;;;;;;5050246;28;20086;-46
2022/03/20 00:30:11;;;;;;;9.30;4.43;;;5.80;99.90;;;;;;5048795;28;20500;-46
2022/03/20 00:32:36;;;;;;;9.63;4.60;;;5.80;99.90;;;;;;5050230;28;20480;-50
2022/03/20 00:35:02;;;;;;;11.07;4.63;;;5.80;99.90;;;;;;5048646;28;20102;-48
2022/03/20 00:37:29;;;;;;;8.93;4.68;;;5.80;99.90;;;;;;5031562;28;20048;-49
2022/03/20 00:39:55;;;;;;;11.68;4.88;;;5.80;99.90;;;;;;5050177;28;20036;-48
2022/03/20 00:42:21;;;;;;;9.60;4.47;;;5.70;99.90;;;;;;5049875;28;20029;-48
2022/03/20 00:44:46;;;;;;;8.15;4.32;;;5.70;99.90;;;;;;5049515;28;20029;-46
2022/03/20 00:47:13;;;;;;;9.98;5.00;;;5.70;99.90;;;;;;5047476;28;20049;-49
2022/03/20 00:49:39;;;;;;;11.45;4.60;;;5.70;99.90;;;;;;5049803;28;20214;-48
2022/03/20 00:52:06;;;;;;;9.32;4.82;;;5.60;99.90;;;;;;5050130;28;20106;-48
2022/03/20 00:54:32;;;;;;;10.50;4.95;;;5.70;99.90;;;;;;5049802;28;20041;-47
2022/03/20 00:56:58;;;;;;;11.35;4.80;;;5.60;99.90;;;;;;5049729;28;20044;-46
2022/03/20 00:59:24;;;;;;;8.50;4.30;;;5.60;99.90;;;;;;5053849;28;20037;-46
2022/03/20 01:01:49;;;;;;;10.98;4.93;;;5.60;99.90;;;;;;5053812;28;20079;-49
2022/03/20 01:04:16;;;;;;;9.95;4.90;;;5.50;99.90;;;;;;5053705;28;20107;-46
2022/03/20 01:06:43;;;;;;;11.13;4.85;;;5.50;99.90;;;;;;5052587;28;20037;-48
2022/03/20 01:09:08;;;;;;;12.60;5.18;;;5.50;99.90;;;;;;5053535;28;20056;-47
2022/03/20 01:11:34;;;;;;;9.13;5.22;;;5.40;99.90;;;;;;5053620;28;20037;-47
2022/03/20 01:14:00;;;;;;;13.88;5.80;;;5.40;99.90;;;;;;5053250;28;20499;-45
2022/03/20 01:16:26;;;;;;;10.50;5.00;;;5.40;99.90;;;;;;5051304;28;20044;-50
2022/03/20 01:18:52;;;;;;;13.18;5.20;;;5.40;99.90;;;;;;5052140;28;20560;-48
2022/03/20 01:21:17;;;;;;;11.38;5.47;;;5.40;99.90;;;;;;5053114;28;20033;-52
2022/03/20 01:23:43;;;;;;;12.10;5.85;;;5.30;99.90;;;;;;5052915;28;20041;-50
2022/03/20 01:26:11;;;;;;;11.32;5.82;;;5.40;99.90;;;;;;5051680;28;20060;-46
2022/03/20 01:28:36;;;;;;;12.98;6.20;;;5.30;99.90;;;;;;5049254;28;20079;-48
2022/03/20 01:31:02;;;;;;;12.80;6.00;;;5.50;99.90;;;;;;5053081;28;20048;-48
2022/03/20 01:33:28;;;;;;;11.75;6.00;;;5.40;99.90;;;;;;5048420;28;20427;-48
2022/03/20 01:35:54;;;;;;;13.73;6.35;;;5.20;99.90;;;;;;5052787;28;20033;-46
2022/03/20 01:38:20;;;;;;;13.00;6.47;;;5.20;99.90;;;;;;5053197;28;20123;-50
2022/03/20 01:40:49;;;;;;;13.75;7.15;;;5.20;99.90;;;;;;5053198;28;20041;-48
2022/03/20 01:43:16;;;;;;;14.23;6.03;;;5.20;99.90;;;;;;5052791;28;20120;-48
2022/03/20 01:45:42;;;;;;;12.98;6.65;;;5.10;99.90;;;;;;5051724;28;20433;-47
2022/03/20 01:48:08;;;;;;;15.68;7.18;;;5.30;99.90;;;;;;5052900;28;20084;-45
2022/03/20 01:50:35;;;;;;;15.75;7.90;;;5.10;99.90;;;;;;5052883;28;20068;-48
2022/03/20 01:53:01;;;;;;;15.30;7.95;;;5.10;99.90;;;;;;5051680;28;20033;-47
2022/03/20 01:55:28;;;;;;;13.35;7.20;;;5.30;99.90;;;;;;5053093;28;20041;-49
2022/03/20 01:57:55;;;;;;;12.32;7.07;;;5.10;99.90;;;;;;5052610;28;20036;-47
2022/03/20 02:00:24;;;;;;;16.58;7.90;;;5.00;99.90;;;;;;5052540;28;20056;-46
2022/03/20 02:02:51;;;;;;;15.32;8.13;;;5.00;99.90;;;;;;5052811;28;20114;-46
2022/03/20 02:05:17;;;;;;;16.85;8.13;;;5.00;99.90;;;;;;5052764;28;20488;-46
2022/03/20 02:07:44;;;;;;;18.75;8.95;;;5.00;99.90;;;;;;5052310;28;20382;-46
2022/03/20 02:10:10;;;;;;;16.25;8.63;;;4.90;99.90;;;;;;5049208;28;20037;-46
2022/03/20 02:12:38;;;;;;;13.55;8.35;;;4.90;99.90;;;;;;5052657;28;20063;-44
2022/03/20 02:15:05;;;;;;;15.48;8.48;;;4.90;99.90;;;;;;5052036;28;20037;-46
2022/03/20 02:17:31;;;;;;;16.15;8.75;;;4.80;99.90;;;;;;5052503;28;20051;-46
2022/03/20 02:19:58;;;;;;;17.30;8.48;;;4.80;99.90;;;;;;5052326;28;20033;-49
2022/03/20 02:22:24;;;;;;;20.38;9.23;;;4.80;99.90;;;;;;5052338;28;20036;-45
2022/03/20 02:24:51;;;;;;;17.27;8.88;;;4.70;99.90;;;;;;5051530;28;20381;-49
2022/03/20 02:27:19;;;;;;;14.50;8.15;;;4.70;99.90;;;;;;5050431;28;20041;-49
2022/03/20 02:29:52;;;;;;;16.52;8.38;;;4.60;99.90;;;;;;5051855;28;20052;-47
2022/03/20 02:32:28;;;;;;;13.32;8.15;;;4.50;99.90;;;;;;5050981;28;20044;-48
2022/03/20 02:35:04;;;;;;;17.67;8.57;;;4.40;99.90;;;;;;5052213;28;20033;-45
2022/03/20 02:37:31;;;;;;;14.32;8.52;;;4.20;99.90;;;;;;5051830;28;20404;-46
2022/03/20 02:40:01;;;;;;;14.98;8.23;;;4.30;99.90;;;;;;5051699;28;20072;-48
2022/03/20 02:42:27;;;;;;;14.40;8.13;;;4.10;99.90;;;;;;5051712;28;20127;-48
2022/03/20 02:45:03;;;;;;;14.70;7.90;;;4.10;99.90;;;;;;5049103;28;20124;-45
2022/03/20 02:47:46;;;;;;;15.55;8.75;;;4.10;99.90;;;;;;5051896;28;20036;-47
2022/03/20 02:50:19;;;;;;;16.15;8.50;;;4.00;99.90;;;;;;5051695;28;20142;-50
2022/03/20 02:52:54;;;;;;;17.10;8.52;;;3.90;99.90;;;;;;5051792;28;20049;-48
2022/03/20 02:55:23;;;;;;;16.63;9.15;;;3.90;99.90;;;;;;5051640;28;20041;-46
2022/03/20 02:57:50;;;;;;;14.88;8.60;;;3.80;99.90;;;;;;5051695;28;20127;-47
2022/03/20 03:00:18;;;;;;;16.40;8.40;;;4.30;99.90;;;;;;5050664;28;20049;-46
2022/03/20 03:02:45;;;;;;;15.23;7.90;;;3.80;99.90;;;;;;5049234;28;20036;-48
2022/03/20 03:05:15;;;;;;;20.88;9.40;;;3.80;99.90;;;;;;5051576;28;20037;-50
2022/03/20 03:13:14;;;;;;;15.75;8.30;;;3.80;99.90;;;;;;5050981;28;20049;-46
2022/03/20 03:15:41;;;;;;;14.93;8.30;;;3.70;99.90;;;;;;5051306;28;20392;-46
2022/03/20 03:18:07;;;;;;;16.48;9.15;;;3.70;99.90;;;;;;5049122;28;20112;-49
2022/03/20 03:20:33;;;;;;;17.10;8.63;;;3.70;99.90;;;;;;5051039;28;20179;-47
2022/03/20 03:22:59;;;;;;;19.20;9.55;;;3.70;99.90;;;;;;5051018;28;20116;-44
2022/03/20 03:25:25;;;;;;;16.45;9.15;;;3.70;99.90;;;;;;5051035;28;20480;-48
2022/03/20 03:27:51;;;;;;;16.30;9.07;;;3.70;99.90;;;;;;5049429;28;20481;-47
2022/03/20 03:30:17;;;;;;;17.17;9.13;;;3.70;99.90;;;;;;5051041;28;20037;-48
2022/03/20 03:32:43;;;;;;;17.80;9.65;;;3.60;99.90;;;;;;5050786;28;20041;-47
2022/03/20 03:37:55;;;;;;;18.83;9.45;;;3.60;99.90;;;;;;5049229;28;20396;-49
2022/03/20 03:40:22;;;;;;;20.20;9.63;;;3.60;99.90;;;;;;5050532;28;20106;-47
2022/03/20 03:42:48;;;;;;;17.83;9.75;;;3.60;99.90;;;;;;5050801;28;20185;-49
2022/03/20 03:45:14;;;;;;;18.55;9.80;;;3.60;99.90;;;;;;5050205;28;20111;-47
2022/03/20 03:47:42;;;;;;;18.55;9.95;;;3.50;99.90;;;;;;5050796;28;20044;-49
2022/03/20 03:50:10;;;;;;;16.52;10.10;;;3.60;99.90;;;;;;5050292;28;20134;-49
2022/03/20 03:52:36;;;;;;;17.50;10.27;;;3.60;99.90;;;;;;5050416;28;20068;-49
2022/03/20 03:55:04;;;;;;;18.67;9.95;;;3.60;99.90;;;;;;5050562;28;20183;-48
2022/03/20 03:57:29;;;;;;;18.35;9.98;;;3.60;99.90;;;;;;5049312;28;20059;-47
2022/03/20 03:59:55;;;;;;;20.65;10.50;;;3.60;99.90;;;;;;5050570;28;20037;-49
2022/03/20 04:02:21;;;;;;;18.00;10.32;;;3.50;99.90;;;;;;5049724;28;20138;-45
2022/03/20 04:04:48;;;;;;;20.48;10.60;;;3.50;99.90;;;;;;5050289;28;20055;-48
2022/03/20 04:07:18;;;;;;;19.92;10.82;;;3.50;99.90;;;;;;5050322;28;20408;-46
2022/03/20 04:09:45;;;;;;;19.13;10.30;;;3.50;99.90;;;;;;5048571;28;20049;-51
2022/03/20 04:12:13;;;;;;;17.13;9.93;;;3.50;99.90;;;;;;5049324;28;20051;-50
2022/03/20 04:14:40;;;;;;;20.73;10.98;;;3.40;99.90;;;;;;5049526;28;20033;-50
2022/03/20 04:17:06;;;;;;;18.60;10.77;;;3.40;99.90;;;;;;5048826;28;20051;-45
2022/03/20 04:19:32;;;;;;;22.65;10.45;;;3.40;99.90;;;;;;5050018;28;20037;-48
2022/03/20 04:21:59;;;;;;;19.50;10.80;;;3.40;99.90;;;;;;5050300;28;20037;-46
2022/03/20 04:24:25;;;;;;;19.17;11.05;;;3.40;99.90;;;;;;5049777;28;20131;-46
2022/03/20 04:26:51;;;;;;;19.58;11.10;;;3.30;99.90;;;;;;5050214;28;20120;-47
2022/03/20 04:29:20;;;;;;;20.48;11.73;;;3.30;99.90;;;;;;5050089;28;20021;-47
2022/03/20 04:31:45;;;;;;;19.02;10.88;;;3.30;99.90;;;;;;5050176;28;20107;-49
2022/03/20 04:34:12;;;;;;;21.05;10.93;;;3.30;99.90;;;;;;5056389;28;20037;-45
2022/03/20 04:36:38;;;;;;;19.67;11.40;;;3.30;99.90;;;;;;5056305;28;20049;-46
2022/03/20 04:39:04;;;;;;;21.35;12.07;;;3.30;99.90;;;;;;5056535;28;20041;-46
2022/03/20 04:41:31;;;;;;;20.40;11.23;;;3.30;99.90;;;;;;5056128;28;20037;-47
2022/03/20 04:43:57;;;;;;;18.63;10.55;;;3.30;99.90;;;;;;5053703;28;20044;-47
2022/03/20 04:46:23;;;;;;;19.10;11.20;;;3.20;99.90;;;;;;5056657;28;20571;-47
2022/03/20 04:59:46;;;;;;;23.85;12.43;;;3.10;99.90;;;;;;5056336;28;20044;-45
2022/03/20 05:02:12;;;;;;;21.70;12.05;;;3.10;99.90;;;;;;5056152;28;20041;-45
2022/03/20 05:04:38;;;;;;;19.55;11.88;;;3.10;99.90;;;;;;5056518;28;20064;-45
2022/03/20 05:07:05;;;;;;;20.98;12.68;;;3.00;99.90;;;;;;5054935;28;20037;-45
2022/03/20 05:15:08;;;;;;;21.10;12.50;;;3.00;99.90;;;;;;5056155;28;20119;-46
2022/03/20 05:17:34;;;;;;;22.65;13.00;;;3.00;99.90;;;;;;5055677;28;20120;-47
2022/03/20 05:20:00;;;;;;;20.85;12.98;;;3.00;99.90;;;;;;5055809;28;20120;-49
2022/03/20 05:22:26;;;;;;;19.95;12.15;;;3.00;99.90;;;;;;5053227;28;20580;-45
2022/03/20 05:24:52;;;;;;;23.08;12.65;;;3.00;99.90;;;;;;5056168;28;20384;-47
2022/03/20 05:27:18;;;;;;;19.30;12.48;;;3.00;99.90;;;;;;5054414;28;20057;-46
2022/03/20 05:29:44;;;;;;;26.42;13.60;;;2.90;99.90;;;;;;5056366;28;20036;-48
2022/03/20 05:32:10;;;;;;;23.58;13.38;;;3.00;99.90;;;;;;5055874;28;20063;-47
2022/03/20 05:34:37;;;;;;;22.35;13.18;;;2.90;99.90;;;;;;5056080;28;20037;-48
2022/03/20 05:37:03;;;;;;;22.58;13.20;;;3.20;99.90;;;;;;5056231;28;20041;-48
2022/03/20 05:39:29;;;;;;;22.80;13.93;;;2.90;99.90;;;;;;5056308;28;20040;-49
2022/03/20 05:41:55;;;;;;;23.65;14.10;;;2.90;99.90;;;;;;5056360;28;20116;-47
2022/03/20 05:44:24;;;;;;;24.80;14.18;;;2.90;99.90;;;;;;5051268;28;20121;-44
2022/03/20 05:46:52;;;;;;;26.08;13.85;;;2.90;99.90;;;;;;5053120;28;20072;-46
2022/03/20 05:49:20;;;;;;;23.65;14.60;;;2.90;99.90;;;;;;5052631;28;20140;-49
2022/03/20 05:51:46;;;;;;;27.98;14.25;;;2.90;99.90;;;;;;5053122;28;20539;-46
2022/03/20 05:54:13;;;;;;;24.50;14.50;;;2.90;99.90;;;;;;5052887;28;20385;-47
2022/03/20 05:59:30;;;;;;;24.60;13.45;;;2.90;99.90;;;;;;5036597;28;20037;-47
2022/03/20 06:01:56;;;;;;;26.50;13.77;;;2.90;99.90;;;;;;5052826;28;20031;-48
2022/03/20 06:04:22;;;;;;;22.98;13.60;;;2.80;99.90;;;;;;5051501;28;20512;-45
2022/03/20 06:06:48;;;;;;;26.40;14.63;;;2.90;99.90;;;;;;5052744;28;20040;-48
2022/03/20 06:09:15;;;;;;;22.52;13.68;;;2.90;99.90;;;;;;5052702;28;20060;-45
2022/03/20 06:11:41;;;;;;;23.25;14.32;;;2.80;99.90;;;;;;5052446;28;20045;-48
2022/03/20 06:14:08;;;;;;;25.30;14.43;;;2.90;99.90;;;;;;5052188;28;20036;-47
2022/03/20 06:16:35;;;;;;;23.90;13.45;;;2.80;99.90;;;;;;5052230;28;20044;-49
2022/03/20 06:19:02;;;;;;;22.90;14.15;;;2.90;99.90;;;;;;5052555;28;20041;-48
2022/03/20 06:21:28;;;;;;;24.95;14.13;;;2.90;99.90;;;;;;5052214;28;20102;-47
2022/03/20 06:23:55;;;;;;;24.17;13.98;;;2.90;99.90;;;;;;5052370;28;20396;-47
2022/03/20 06:26:22;;;;;;;22.92;14.05;;;2.90;99.90;;;;;;5052222;28;20115;-47
2022/03/20 06:28:49;;;;;;;21.42;13.65;;;2.90;99.90;;;;;;5052427;28;20041;-46
2022/03/20 06:31:16;;;;;;;23.23;15.20;;;2.90;99.90;;;;;;5052341;28;20037;-46
2022/03/20 06:33:43;;;;;;;23.70;13.95;;;3.00;99.90;;;;;;5051945;28;20045;-47
2022/03/20 06:36:10;;;;;;;22.25;14.23;;;3.00;99.90;;;;;;5052237;28;20059;-48
2022/03/20 06:38:37;;;;;;;22.98;14.55;;;3.00;99.90;;;;;;5052081;28;20517;-46
2022/03/20 06:41:03;;;;;;;27.45;15.13;;;3.00;99.90;;;;;;5051831;28;20068;-50
2022/03/20 06:43:29;;;;;;;26.40;14.45;;;3.10;99.90;;;;;;5051533;28;20039;-48
2022/03/20 06:45:56;;;;;;;24.15;14.10;;;3.10;99.90;;;;;;5051933;28;20055;-48
2022/03/20 06:48:24;;;;;;;24.90;14.23;;;3.10;99.90;;;;;;5051382;28;20053;-48
2022/03/20 06:50:50;;;;;;;24.05;14.13;;;3.10;99.90;;;;;;5045529;28;20360;-46
2022/03/20 06:53:18;;;;;;;27.23;15.32;;;3.10;99.90;;;;;;5048426;28;20400;-47
2022/03/20 06:55:44;;;;;;;24.10;14.50;;;3.20;99.90;;;;;;5049971;28;20036;-47
2022/03/20 06:58:11;;;;;;;23.80;14.77;;;3.20;99.90;;;;;;5050101;28;20029;-45
2022/03/20 07:00:37;;;;;;;23.48;14.45;;;3.20;99.90;;;;;;5051011;28;20064;-46
2022/03/20 07:03:06;;;;;;;23.77;14.90;;;3.30;99.90;;;;;;5050348;28;20286;-47
2022/03/20 07:05:32;;;;;;;24.02;14.57;;;3.30;99.90;;;;;;5050202;28;20037;-46
2022/03/20 07:08:02;;;;;;;24.83;14.88;;;3.30;99.90;;;;;;5051435;28;20051;-47
2022/03/20 07:10:28;;;;;;;23.42;14.45;;;3.30;99.90;;;;;;5050897;28;20645;-47
2022/03/20 07:15:41;;;;;;;;;;;3.40;99.90;;;;;;5051171;28;20052;-46
2022/03/20 07:18:09;;;;;;;26.75;15.07;;;3.50;99.90;;;;;;5051018;28;20451;-48
2022/03/20 07:20:36;;;;;;;26.88;15.63;;;3.50;99.90;;;;;;5051175;28;20036;-45
2022/03/20 07:23:01;;;;;;;22.98;14.57;;;3.60;99.90;;;;;;5051400;28;20025;-47
2022/03/20 07:30:56;;;;;;;23.88;15.65;;;3.70;99.90;;;;;;5050858;28;20409;-45
2022/03/20 07:33:24;;;;;;;25.60;15.73;;;3.80;99.90;;;;;;5049476;28;20060;-46
2022/03/20 07:35:50;;;;;;;23.88;14.68;;;3.80;99.90;;;;;;5050952;28;20119;-47
2022/03/20 07:38:16;;;;;;;23.05;15.02;;;3.80;99.90;;;;;;5051001;28;20124;-48
2022/03/20 07:40:42;;;;;;;23.52;14.45;;;3.80;99.90;;;;;;5050667;28;20048;-47
2022/03/20 07:43:08;;;;;;;24.60;15.52;;;3.90;99.90;;;;;;5032782;28;21247;-46
2022/03/20 07:45:34;;;;;;;26.48;15.50;;;4.00;99.90;;;;;;5044351;28;20049;-48
2022/03/20 07:48:00;;;;;;;29.50;15.23;;;4.10;99.90;;;;;;5031412;28;20134;-50
2022/03/20 07:50:26;;;;;;;28.13;15.50;;;4.10;99.90;;;;;;5032464;28;20065;-50
2022/03/20 07:52:52;;;;;;;27.38;15.52;;;4.20;99.90;;;;;;5049186;28;20033;-46
2022/03/20 07:55:18;;;;;;;25.85;15.27;;;4.20;99.90;;;;;;5050128;28;20040;-48
2022/03/20 07:57:44;;;;;;;24.02;15.73;;;4.30;99.90;;;;;;5038097;28;20047;-49
2022/03/20 08:00:11;;;;;;;26.52;16.15;;;4.40;99.90;;;;;;5041937;28;20120;-47
2022/03/20 08:02:37;;;;;;;28.88;16.13;;;4.50;99.90;;;;;;5041713;28;20560;-45
2022/03/20 08:05:03;;;;;;;27.25;15.60;;;4.50;99.90;;;;;;5042124;28;20484;-49
2022/03/20 08:07:35;;;;;;;26.52;15.57;;;4.60;99.90;;;;;;5036381;28;20045;-50
2022/03/20 08:10:08;;;;;;;27.90;16.40;;;4.60;99.90;;;;;;5037406;28;20044;-48
2022/03/20 08:12:34;;;;;;;26.70;15.68;;;4.70;99.90;;;;;;5041208;28;20037;-47
2022/03/20 08:15:00;;;;;;;25.77;15.75;;;4.70;99.90;;;;;;5038069;28;20059;-50
2022/03/20 08:17:28;;;;;;;26.75;16.27;;;4.80;99.90;;;;;;5041688;28;20045;-48
2022/03/20 08:19:54;;;;;;;28.90;16.80;;;4.80;99.90;;;;;;5038599;28;20473;-47
2022/03/20 08:22:20;;;;;;;25.75;15.63;;;4.80;99.90;;;;;;5039036;28;20029;-48
2022/03/20 08:24:47;;;;;;;24.80;15.63;;;4.90;99.90;;;;;;5040858;28;20037;-46
2022/03/20 08:27:13;;;;;;;26.98;15.75;;;5.00;99.90;;;;;;5041746;28;20120;-48
2022/03/20 08:29:38;;;;;;;28.55;16.38;;;5.00;99.90;;;;;;5041879;28;20500;-47
2022/03/20 08:32:06;;;;;;;29.15;16.90;;;5.10;99.90;;;;;;5042025;28;20617;-48
2022/03/20 08:34:32;;;;;;;29.33;16.33;;;5.10;99.90;;;;;;5042277;28;20037;-47
2022/03/20 08:36:57;;;;;;;28.58;17.20;;;5.10;99.90;;;;;;5042182;28;20052;-46
2022/03/20 08:39:23;;;;;;;26.40;16.02;;;5.20;99.90;;;;;;5022819;28;20044;-45
2022/03/20 08:41:49;;;;;;;24.50;15.52;;;5.30;99.90;;;;;;5038922;28;20385;-46
2022/03/20 08:44:14;;;;;;;24.63;15.45;;;5.50;99.90;;;;;;5036934;28;20051;-47
2022/03/20 08:46:40;;;;;;;28.88;16.27;;;5.60;99.90;;;;;;5039695;28;20373;-47
2022/03/20 08:49:07;;;;;;;27.02;16.23;;;5.60;99.90;;;;;;5035277;28;20064;-45
2022/03/20 08:51:34;;;;;;;27.77;16.00;;;5.60;99.90;;;;;;5037636;28;20083;-47
2022/03/20 08:54:01;;;;;;;26.67;16.70;;;5.80;99.90;;;;;;5036974;28;20190;-47
2022/03/20 08:56:27;;;;;;;30.85;17.23;;;5.80;99.90;;;;;;5036424;28;20138;-49
2022/03/20 08:58:54;;;;;;;33.33;17.90;;;5.90;99.90;;;;;;5034365;28;20041;-47
2022/03/20 09:01:20;;;;;;;29.65;16.98;;;6.00;99.90;;;;;;5036186;28;20037;-46
2022/03/20 09:03:49;;;;;;;31.02;16.40;;;6.10;99.90;;;;;;5039700;28;20040;-46
2022/03/20 09:06:19;;;;;;;27.27;16.67;;;6.20;99.90;;;;;;5038959;28;20138;-47
2022/03/20 09:08:45;;;;;;;28.08;16.08;;;6.20;99.90;;;;;;5037317;28;20051;-46
2022/03/20 09:11:11;;;;;;;28.88;17.30;;;6.30;99.90;;;;;;5035985;28;20506;-47
2022/03/20 09:13:37;;;;;;;27.02;16.15;;;6.20;99.90;;;;;;5030030;28;20033;-47
2022/03/20 09:18:59;;;;;;;;;;;6.40;99.90;;;;;;5041261;28;20408;-47
2022/03/20 09:21:33;;;;;;;29.27;17.65;;;6.50;99.90;;;;;;5042763;28;19926;-48
2022/03/20 09:24:00;;;;;;;31.35;17.50;;;6.70;99.90;;;;;;5040259;28;20404;-47
2022/03/20 09:26:27;;;;;;;31.30;18.08;;;6.80;99.90;;;;;;5039765;28;20067;-49
2022/03/20 09:28:53;;;;;;;25.27;16.60;;;6.80;99.90;;;;;;5041081;28;20471;-45
2022/03/20 09:31:19;;;;;;;27.90;16.73;;;7.30;99.90;;;;;;5040228;28;20476;-47
2022/03/20 09:33:46;;;;;;;27.60;17.30;;;7.20;99.90;;;;;;5043708;28;20503;-47
2022/03/20 09:36:12;;;;;;;26.92;16.10;;;7.20;99.90;;;;;;5038545;28;20115;-47
2022/03/20 09:38:38;;;;;;;27.13;17.45;;;7.40;99.90;;;;;;5034873;28;20049;-47
2022/03/20 09:41:09;;;;;;;28.40;17.67;;;7.30;99.90;;;;;;5041616;28;20033;-48
2022/03/20 09:43:42;;;;;;;26.90;16.25;;;7.40;99.90;;;;;;5038374;28;20037;-46
2022/03/20 09:46:08;;;;;;;29.60;18.00;;;7.70;99.90;;;;;;5039069;28;20500;-45
2022/03/20 09:48:34;;;;;;;27.50;18.33;;;7.90;99.80;;;;;;5036599;28;20064;-46
2022/03/20 09:51:01;;;;;;;28.65;18.00;;;7.80;99.90;;;;;;5039662;28;20038;-45
2022/03/20 09:53:28;;;;;;;30.13;17.60;;;7.90;99.90;;;;;;5037095;28;20037;-48
2022/03/20 09:55:55;;;;;;;29.00;17.35;;;7.90;98.50;;;;;;5040134;28;20036;-49
2022/03/20 09:58:26;;;;;;;29.05;17.70;;;7.90;98.80;;;;;;5019353;28;20047;-45
2022/03/20 10:00:53;;;;;;;29.70;17.33;;;8.10;99.40;;;;;;5036605;28;20028;-50
2022/03/20 10:03:25;;;;;;;27.98;18.48;;;8.10;97.90;;;;;;5036279;28;20496;-49
2022/03/20 10:06:03;;;;;;;31.65;17.75;;;8.10;97.70;;;;;;5035078;28;20493;-44
2022/03/20 10:08:28;;;;;;;25.90;16.85;;;8.20;98.40;;;;;;5038419;28;20484;-47
2022/03/20 10:11:12;;;;;;;28.10;17.85;;;8.30;97.90;;;;;;5042483;28;20040;-44
2022/03/20 10:13:38;;;;;;;29.90;18.63;;;8.40;98.10;;;;;;5040429;28;20805;-45
2022/03/20 10:16:17;;;;;;;29.30;17.95;;;8.20;97.40;;;;;;5042181;28;20302;-48
2022/03/20 10:18:43;;;;;;;27.75;17.63;;;8.60;97.10;;;;;;5042018;28;20053;-49
2022/03/20 10:21:09;;;;;;;29.67;18.60;;;8.60;96.90;;;;;;5038728;28;20036;-49
2022/03/20 10:23:41;;;;;;;28.40;18.60;;;8.50;96.90;;;;;;5038760;28;20033;-45
2022/03/20 10:26:14;;;;;;;30.60;18.58;;;8.60;96.90;;;;;;5040167;28;20284;-48
2022/03/20 10:28:52;;;;;;;27.58;16.95;;;8.90;97.80;;;;;;5037109;28;20578;-47
2022/03/20 10:31:20;;;;;;;28.17;17.38;;;9.00;97.30;;;;;;5038790;28;20435;-49
2022/03/20 10:34:09;;;;;;;31.35;19.77;;;9.00;95.30;;;;;;5042450;28;20119;-47
2022/03/20 10:36:35;;;;;;;27.60;17.52;;;9.20;95.80;;;;;;5039645;28;20130;-47
2022/03/20 10:39:02;;;;;;;32.67;19.17;;;9.00;95.20;;;;;;5040100;28;20040;-46
2022/03/20 10:41:34;;;;;;;31.73;18.38;;;9.00;95.90;;;;;;5039369;28;20041;-46
2022/03/20 10:44:01;;;;;;;31.85;20.27;;;9.10;95.00;;;;;;5039487;28;20057;-48
2022/03/20 10:46:29;;;;;;;29.77;19.02;;;9.10;94.60;;;;;;5039783;28;20883;-45
2022/03/20 10:48:57;;;;;;;29.80;19.05;;;9.10;94.90;;;;;;5039660;28;20044;-47
2022/03/20 10:51:38;;;;;;;31.27;19.45;;;9.30;95.00;;;;;;5040182;28;20191;-47
2022/03/20 10:54:09;;;;;;;29.17;18.83;;;9.40;94.20;;;;;;5043078;28;20064;-49
2022/03/20 10:56:37;;;;;;;29.30;18.45;;;9.60;95.80;;;;;;5043037;28;20438;-48
2022/03/20 10:59:13;;;;;;;27.33;17.75;;;9.60;94.30;;;;;;5040200;28;20037;-50
2022/03/20 11:01:40;;;;;;;31.08;19.80;;;9.80;94.30;;;;;;5040243;28;20731;-46
2022/03/20 11:04:08;;;;;;;32.95;19.13;;;9.90;94.10;;;;;;5039009;28;20128;-49
2022/03/20 11:06:35;;;;;;;30.77;19.98;;;10.00;92.80;;;;;;5037883;28;20068;-44
2022/03/20 11:09:04;;;;;;;28.15;19.67;;;10.00;94.30;;;;;;5039463;28;20033;-47
2022/03/20 11:11:57;;;;;;;29.88;18.83;;;10.20;94.10;;;;;;5038711;28;20131;-44
2022/03/20 11:14:24;;;;;;;29.40;18.52;;;10.20;92.10;;;;;;5034972;28;20044;-46
2022/03/20 11:17:06;;;;;;;31.73;20.10;;;10.30;92.00;;;;;;5040050;28;20080;-50
2022/03/20 11:19:34;;;;;;;28.88;18.98;;;10.30;92.30;;;;;;5022965;28;20381;-50
2022/03/20 11:22:03;;;;;;;31.25;19.45;;;10.50;90.30;;;;;;5037888;28;20442;-47
2022/03/20 11:24:29;;;;;;;29.27;19.20;;;10.40;91.20;;;;;;5039535;28;20033;-47
2022/03/20 11:26:59;;;;;;;33.25;20.27;;;10.70;90.80;;;;;;5040473;28;20037;-49
2022/03/20 11:29:26;;;;;;;31.13;19.35;;;10.80;90.60;;;;;;5038799;28;20332;-47
2022/03/20 11:31:53;;;;;;;30.85;19.60;;;10.50;88.00;;;;;;5038656;28;20040;-50
2022/03/20 11:34:19;;;;;;;29.00;18.83;;;10.50;89.80;;;;;;5038212;28;20033;-46
2022/03/20 11:37:08;;;;;;;31.00;20.30;;;10.70;87.90;;;;;;5038134;28;20037;-49
2022/03/20 11:39:35;;;;;;;32.30;18.98;;;10.80;88.30;;;;;;5038675;28;20055;-50
2022/03/20 11:42:26;;;;;;;28.52;18.60;;;10.80;84.70;;;;;;5037945;28;20037;-48
2022/03/20 11:44:56;;;;;;;29.05;19.58;;;11.10;85.40;;;;;;5038181;28;20043;-49
2022/03/20 11:47:27;;;;;;;30.75;19.52;;;11.10;85.70;;;;;;5037592;28;20040;-46
2022/03/20 11:50:34;;;;;;;29.75;20.38;;;11.30;85.60;;;;;;5036365;28;20060;-45
2022/03/20 11:53:04;;;;;;;33.50;20.83;;;11.20;83.60;;;;;;5037616;28;20424;-47
2022/03/20 11:55:40;;;;;;;31.70;20.02;;;11.00;82.70;;;;;;5037879;28;20496;-48
2022/03/20 11:58:16;;;;;;;29.08;18.77;;;10.90;87.10;;;;;;5036034;28;20154;-45
2022/03/20 12:00:44;;;;;;;28.52;18.63;;;10.60;88.40;;;;;;5033912;28;20041;-46
2022/03/20 12:03:37;;;;;;;29.85;20.75;;;10.40;85.60;;;;;;5036915;28;20025;-52
2022/03/20 12:06:26;;;;;;;29.95;19.67;;;10.20;87.10;;;;;;5035473;28;20049;-48
2022/03/20 12:09:33;;;;;;;31.70;18.70;;;10.30;89.30;;;;;;5035624;28;20047;-47
2022/03/20 12:12:23;;;;;;;32.05;20.33;;;10.10;89.30;;;;;;5035847;28;20044;-50
2022/03/20 12:14:53;;;;;;;30.35;20.48;;;10.10;89.50;;;;;;5036429;28;20099;-44
2022/03/20 12:17:20;;;;;;;29.08;19.40;;;10.10;90.50;;;;;;5036931;28;20041;-44
2022/03/20 12:19:55;;;;;;;30.83;20.48;;;10.10;90.60;;;;;;5051347;28;20041;-49
2022/03/20 12:22:21;;;;;;;31.35;20.05;;;10.10;91.10;;;;;;5039368;28;20108;-46
2022/03/20 12:24:53;;;;;;;29.85;19.92;;;10.00;90.00;;;;;;5039922;28;20543;-45
2022/03/20 12:27:22;;;;;;;33.08;20.65;;;9.90;90.40;;;;;;5040745;28;20461;-46
2022/03/20 12:29:54;;;;;;;30.48;19.95;;;10.00;91.20;;;;;;5039788;28;20041;-45
2022/03/20 12:32:24;;;;;;;30.73;20.98;;;10.00;91.40;;;;;;5038295;28;20051;-46
2022/03/20 12:35:04;;;;;;;32.70;21.20;;;9.90;90.90;;;;;;5040869;28;20064;-46
2022/03/20 12:40:04;;;;;;;29.63;19.83;;;9.80;90.90;;;;;;5040570;28;20048;-44
2022/03/20 12:42:32;;;;;;;31.00;19.35;;;9.80;91.60;;;;;;5040690;28;20079;-45
2022/03/20 12:44:58;;;;;;;31.92;20.35;;;9.70;92.20;;;;;;5038729;28;20040;-44
2022/03/20 12:47:27;;;;;;;30.60;19.80;;;9.60;92.10;;;;;;5040207;28;20048;-45
2022/03/20 12:50:06;;;;;;;30.92;19.20;;;9.60;92.50;;;;;;5040294;28;20096;-46
2022/03/20 12:52:33;;;;;;;33.75;21.15;;;9.60;93.00;;;;;;5040427;28;20045;-45
2022/03/20 12:55:05;;;;;;;32.58;19.42;;;9.70;93.50;;;;;;5037853;28;20102;-45
2022/03/20 12:57:36;;;;;;;29.95;19.45;;;9.70;93.60;;;;;;5039643;28;20386;-47
2022/03/20 13:00:07;;;;;;;30.55;20.23;;;9.70;93.70;;;;;;5035560;28;20048;-49
2022/03/20 13:02:34;;;;;;;33.45;21.75;;;9.70;93.50;;;;;;5039624;28;20033;-48
2022/03/20 13:05:10;;;;;;;33.17;21.40;;;9.80;93.10;;;;;;5038586;28;20042;-47
2022/03/20 13:07:38;;;;;;;31.23;20.15;;;10.00;93.80;;;;;;5040688;28;20486;-49
2022/03/20 13:10:04;;;;;;;32.33;20.23;;;10.40;92.30;;;;;;5040131;28;20390;-46
2022/03/20 13:13:02;;;;;;;33.22;20.60;;;10.60;91.60;;;;;;5038229;28;20037;-50
2022/03/20 13:15:33;;;;;;;32.30;20.25;;;10.80;93.30;;;;;;5039754;28;20037;-45
2022/03/20 13:18:01;;;;;;;31.85;20.83;;;11.10;93.40;;;;;;5038697;28;20051;-46
2022/03/20 13:20:29;;;;;;;31.58;20.13;;;11.40;90.10;;;;;;5036028;28;20040;-47
2022/03/20 13:22:56;;;;;;;32.90;20.55;;;11.20;86.50;;;;;;5036412;28;20037;-46
2022/03/20 13:25:23;;;;;;;31.45;20.85;;;11.20;88.70;;;;;;5039205;28;20037;-47
2022/03/20 13:27:51;;;;;;;30.08;21.30;;;11.10;88.80;;;;;;5033810;28;20084;-48